Pagrindinis puslapis
METAR-TAF:

METAR-TAF

Oro uostai :

Rijadas, Saudo Arabija

platuma: 24-56N, ilguma: 046-43E, Aukštis: 614 m

Dabartinis oras

Ataskaita buvo paskelbta 1 valandą ir 38 minutes, ne 22:00 UTC
Vėjas 3 kt iš Šiaurės Vakarų
Temperatūra 27°C
Drėgmė 23%
Slėgis 1012 hPa
Matomumas 10 km arba daugiau
nėra debesų žemiau 1500 m ir nėra kamuolinių lietaus debesų

METAR: OERK 242200Z 31003KT CAVOK 27/04 Q1012 NOSIG

Laikas: 02:38 (23:38 UTC)

Prognozė

Ataskaita buvo paskelbta 6 valandos ir 38 minutes, ne 17:00 UTC
Prognozė galioja nuo 24 metu 18 UTC su 25 metu 24 UTC
Vėjas 12 kt iš Šiaurės/Šiaurės Vakarų
Matomumas: 7000 m
Tapsmas
nuo 25 metu 05 UTC su 25 metu 07 UTC
Vėjas 22 kt iš Šiaurės/Šiaurės Rytų
Laikinai
nuo 25 metu 06 UTC su 25 metu 20 UTC
Matomumas: 3000 m
Dulkes pustymas
Tikimybė 30% :
Laikinai
nuo 25 metu 08 UTC su 25 metu 15 UTC
Matomumas: 1000 m

TAF: OERK 241700Z 2418/2524 33012KT 7000 NSC BECMG 2505/2507 03022KT TEMPO 2506/2520 3000 BLDU PROB30 TEMPO 2508/2515 1000

Orai ataskaitas ir orų prognozės (METAR, TAF).

turimą stotys yra geltonos ir raudonos taškus žemėlapyje.

Perkelti pele per norėdami pamatyti stoties vardą.

Tada spustelėkite, norėdami matyti oro stebėjimo ir prognozės.

Norėdami pakeisti žemėlapį: spustelėkite ant žalios mygtukų su juodo kryžiaus žemyn,; žalią mygtuką su brūkšneliu, jei norite nutolinti; arba žalių rodyklių gretimoms žemėlapius.


METAR-TAF: